sensor_id;sensor_type;location;lat;lon;timestamp;pressure;altitude;pressure_sealevel;temperature;humidity
23172;BME280;11754;42.664;23.594;2023-11-18T00:01:05;94684.84;;;6.68;91.21
23172;BME280;11754;42.664;23.594;2023-11-18T00:03:31;94682.41;;;6.75;91.06
23172;BME280;11754;42.664;23.594;2023-11-18T00:05:56;94663.38;;;6.73;90.42
23172;BME280;11754;42.664;23.594;2023-11-18T00:08:22;94632.44;;;6.68;90.67
23172;BME280;11754;42.664;23.594;2023-11-18T00:10:47;94630.13;;;6.73;90.82
23172;BME280;11754;42.664;23.594;2023-11-18T00:13:12;94653.88;;;6.64;89.85
23172;BME280;11754;42.664;23.594;2023-11-18T00:15:38;94648.63;;;6.56;90.20
23172;BME280;11754;42.664;23.594;2023-11-18T00:18:04;94643.69;;;6.53;89.74
23172;BME280;11754;42.664;23.594;2023-11-18T00:20:29;94630.13;;;6.57;89.89
23172;BME280;11754;42.664;23.594;2023-11-18T00:22:56;94650.09;;;6.50;89.12
23172;BME280;11754;42.664;23.594;2023-11-18T00:25:22;94654.97;;;6.37;89.26
23172;BME280;11754;42.664;23.594;2023-11-18T00:27:47;94679.03;;;6.40;89.47
23172;BME280;11754;42.664;23.594;2023-11-18T00:30:13;94685.28;;;6.39;88.93
23172;BME280;11754;42.664;23.594;2023-11-18T00:32:39;94676.91;;;6.36;89.47
23172;BME280;11754;42.664;23.594;2023-11-18T00:35:05;94672.47;;;6.28;89.82
23172;BME280;11754;42.664;23.594;2023-11-18T00:37:32;94647.59;;;6.32;89.67
23172;BME280;11754;42.664;23.594;2023-11-18T00:39:57;94653.03;;;6.39;88.89
23172;BME280;11754;42.664;23.594;2023-11-18T00:42:23;94640.75;;;6.31;88.50
23172;BME280;11754;42.664;23.594;2023-11-18T00:44:49;94648.75;;;6.30;89.07
23172;BME280;11754;42.664;23.594;2023-11-18T00:47:15;94649.53;;;6.22;88.90
23172;BME280;11754;42.664;23.594;2023-11-18T00:49:40;94659.69;;;6.17;89.36
23172;BME280;11754;42.664;23.594;2023-11-18T00:52:05;94661.97;;;6.20;89.02
23172;BME280;11754;42.664;23.594;2023-11-18T00:54:31;94658.34;;;6.13;89.18
23172;BME280;11754;42.664;23.594;2023-11-18T00:56:57;94659.81;;;6.15;89.33
23172;BME280;11754;42.664;23.594;2023-11-18T00:59:22;94669.41;;;5.98;88.79
23172;BME280;11754;42.664;23.594;2023-11-18T01:01:47;94671.72;;;6.01;89.83
23172;BME280;11754;42.664;23.594;2023-11-18T01:04:14;94671.94;;;5.82;89.54
23172;BME280;11754;42.664;23.594;2023-11-18T01:06:39;94678.41;;;5.96;90.05
23172;BME280;11754;42.664;23.594;2023-11-18T01:09:05;94677.59;;;5.95;90.08
23172;BME280;11754;42.664;23.594;2023-11-18T01:11:32;94678.56;;;5.94;89.35
23172;BME280;11754;42.664;23.594;2023-11-18T01:13:58;94681.44;;;5.91;89.71
23172;BME280;11754;42.664;23.594;2023-11-18T01:16:23;94677.25;;;5.98;89.67
23172;BME280;11754;42.664;23.594;2023-11-18T01:18:49;94674.31;;;5.93;89.21
23172;BME280;11754;42.664;23.594;2023-11-18T01:21:14;94669.97;;;5.84;89.01
23172;BME280;11754;42.664;23.594;2023-11-18T01:23:42;94681.13;;;5.86;89.13
23172;BME280;11754;42.664;23.594;2023-11-18T01:26:10;94688.88;;;5.96;89.29
23172;BME280;11754;42.664;23.594;2023-11-18T01:28:38;94685.66;;;5.76;88.55
23172;BME280;11754;42.664;23.594;2023-11-18T01:31:07;94688.94;;;5.78;89.43
23172;BME280;11754;42.664;23.594;2023-11-18T01:33:40;94663.75;;;5.77;88.91
23172;BME280;11754;42.664;23.594;2023-11-18T01:36:07;94678.31;;;5.79;88.67
23172;BME280;11754;42.664;23.594;2023-11-18T01:38:55;94678.84;;;5.91;89.02
23172;BME280;11754;42.664;23.594;2023-11-18T01:41:20;94680.81;;;5.89;87.93
23172;BME280;11754;42.664;23.594;2023-11-18T01:43:46;94684.34;;;5.80;87.73
23172;BME280;11754;42.664;23.594;2023-11-18T01:46:12;94699.09;;;5.81;88.23
23172;BME280;11754;42.664;23.594;2023-11-18T01:48:39;94686.00;;;5.81;88.15
23172;BME280;11754;42.664;23.594;2023-11-18T01:51:06;94699.44;;;5.86;88.06
23172;BME280;11754;42.664;23.594;2023-11-18T01:53:34;94682.72;;;5.79;87.61
23172;BME280;11754;42.664;23.594;2023-11-18T01:56:00;94681.13;;;5.86;87.84
23172;BME280;11754;42.664;23.594;2023-11-18T01:58:26;94683.16;;;5.92;87.68
23172;BME280;11754;42.664;23.594;2023-11-18T02:00:53;94691.94;;;5.91;87.52
23172;BME280;11754;42.664;23.594;2023-11-18T02:03:18;94688.06;;;5.95;86.86
23172;BME280;11754;42.664;23.594;2023-11-18T02:05:45;94696.56;;;5.97;86.53
23172;BME280;11754;42.664;23.594;2023-11-18T02:08:11;94689.72;;;5.96;86.63
23172;BME280;11754;42.664;23.594;2023-11-18T02:11:00;94703.84;;;5.86;86.76
23172;BME280;11754;42.664;23.594;2023-11-18T02:13:31;94690.59;;;5.87;86.14
23172;BME280;11754;42.664;23.594;2023-11-18T02:15:58;94692.97;;;5.72;85.84
23172;BME280;11754;42.664;23.594;2023-11-18T02:18:26;94695.41;;;5.66;85.12
23172;BME280;11754;42.664;23.594;2023-11-18T02:20:57;94702.28;;;5.67;85.99
23172;BME280;11754;42.664;23.594;2023-11-18T02:23:25;94698.06;;;5.74;86.05
23172;BME280;11754;42.664;23.594;2023-11-18T02:25:53;94697.06;;;5.67;86.94
23172;BME280;11754;42.664;23.594;2023-11-18T02:28:21;94689.41;;;5.47;86.97
23172;BME280;11754;42.664;23.594;2023-11-18T02:30:46;94712.50;;;5.52;86.17
23172;BME280;11754;42.664;23.594;2023-11-18T02:36:14;94708.31;;;5.59;85.48
23172;BME280;11754;42.664;23.594;2023-11-18T02:38:47;94708.09;;;5.52;85.17
23172;BME280;11754;42.664;23.594;2023-11-18T02:41:16;94695.66;;;5.54;83.75
23172;BME280;11754;42.664;23.594;2023-11-18T02:43:43;94719.94;;;5.39;83.62
23172;BME280;11754;42.664;23.594;2023-11-18T02:46:10;94703.66;;;5.27;84.11
23172;BME280;11754;42.664;23.594;2023-11-18T02:48:40;94710.22;;;5.31;84.51
23172;BME280;11754;42.664;23.594;2023-11-18T02:51:07;94716.06;;;5.25;83.54
23172;BME280;11754;42.664;23.594;2023-11-18T02:53:33;94706.84;;;5.13;83.69
23172;BME280;11754;42.664;23.594;2023-11-18T02:55:59;94731.00;;;5.15;84.03
23172;BME280;11754;42.664;23.594;2023-11-18T02:58:29;94731.75;;;5.07;83.80
23172;BME280;11754;42.664;23.594;2023-11-18T03:00:55;94727.44;;;5.16;83.79
23172;BME280;11754;42.664;23.594;2023-11-18T03:03:20;94715.63;;;5.12;83.56
23172;BME280;11754;42.664;23.594;2023-11-18T03:05:46;94720.63;;;5.23;83.25
23172;BME280;11754;42.664;23.594;2023-11-18T03:08:13;94716.75;;;5.27;82.94
23172;BME280;11754;42.664;23.594;2023-11-18T03:10:39;94725.91;;;5.31;82.53
23172;BME280;11754;42.664;23.594;2023-11-18T03:13:05;94732.03;;;5.22;81.71
23172;BME280;11754;42.664;23.594;2023-11-18T03:15:31;94727.44;;;5.16;81.98
23172;BME280;11754;42.664;23.594;2023-11-18T03:17:57;94720.13;;;5.01;81.83
23172;BME280;11754;42.664;23.594;2023-11-18T03:20:26;94754.25;;;5.00;81.29
23172;BME280;11754;42.664;23.594;2023-11-18T03:22:52;94754.13;;;5.01;81.94
23172;BME280;11754;42.664;23.594;2023-11-18T03:25:18;94745.59;;;4.99;81.21
23172;BME280;11754;42.664;23.594;2023-11-18T03:27:47;94752.09;;;4.95;81.24
23172;BME280;11754;42.664;23.594;2023-11-18T03:30:13;94748.72;;;4.85;80.59
23172;BME280;11754;42.664;23.594;2023-11-18T03:32:39;94746.03;;;4.77;80.91
23172;BME280;11754;42.664;23.594;2023-11-18T03:35:08;94738.19;;;4.77;81.67
23172;BME280;11754;42.664;23.594;2023-11-18T03:37:40;94742.38;;;4.70;80.92
23172;BME280;11754;42.664;23.594;2023-11-18T03:40:11;94737.16;;;4.70;80.28
23172;BME280;11754;42.664;23.594;2023-11-18T03:42:38;94747.13;;;4.56;80.77
23172;BME280;11754;42.664;23.594;2023-11-18T03:45:05;94759.91;;;4.60;80.71
23172;BME280;11754;42.664;23.594;2023-11-18T03:47:31;94758.25;;;4.58;81.09
23172;BME280;11754;42.664;23.594;2023-11-18T03:49:57;94739.75;;;4.52;81.03
23172;BME280;11754;42.664;23.594;2023-11-18T03:52:23;94762.59;;;4.68;80.64
23172;BME280;11754;42.664;23.594;2023-11-18T03:54:49;94753.16;;;4.57;80.54
23172;BME280;11754;42.664;23.594;2023-11-18T03:57:15;94740.56;;;4.52;79.69
23172;BME280;11754;42.664;23.594;2023-11-18T03:59:40;94738.84;;;4.61;80.21
23172;BME280;11754;42.664;23.594;2023-11-18T04:02:08;94753.41;;;4.64;80.26
23172;BME280;11754;42.664;23.594;2023-11-18T04:04:57;94751.00;;;4.52;79.63
23172;BME280;11754;42.664;23.594;2023-11-18T04:07:22;94751.88;;;4.43;79.15
23172;BME280;11754;42.664;23.594;2023-11-18T04:09:47;94740.97;;;4.30;79.17
23172;BME280;11754;42.664;23.594;2023-11-18T04:12:12;94757.22;;;4.51;79.73
23172;BME280;11754;42.664;23.594;2023-11-18T04:14:38;94761.22;;;4.46;79.28
23172;BME280;11754;42.664;23.594;2023-11-18T04:17:03;94756.88;;;4.37;78.14
23172;BME280;11754;42.664;23.594;2023-11-18T04:19:29;94758.13;;;4.32;78.86
23172;BME280;11754;42.664;23.594;2023-11-18T04:21:54;94747.53;;;4.34;78.26
23172;BME280;11754;42.664;23.594;2023-11-18T04:24:20;94769.09;;;4.36;79.00
23172;BME280;11754;42.664;23.594;2023-11-18T04:26:45;94750.09;;;4.16;78.48
23172;BME280;11754;42.664;23.594;2023-11-18T04:29:11;94771.22;;;4.23;77.85
23172;BME280;11754;42.664;23.594;2023-11-18T04:31:36;94767.28;;;4.19;78.37
23172;BME280;11754;42.664;23.594;2023-11-18T04:34:02;94784.81;;;4.26;78.48
23172;BME280;11754;42.664;23.594;2023-11-18T04:36:29;94785.75;;;4.25;78.11
23172;BME280;11754;42.664;23.594;2023-11-18T04:38:56;94777.81;;;4.27;77.97
23172;BME280;11754;42.664;23.594;2023-11-18T04:41:22;94771.44;;;4.12;76.91
23172;BME280;11754;42.664;23.594;2023-11-18T04:43:48;94765.22;;;4.13;76.87
23172;BME280;11754;42.664;23.594;2023-11-18T04:46:14;94772.16;;;4.04;76.02
23172;BME280;11754;42.664;23.594;2023-11-18T04:48:39;94786.66;;;4.16;76.82
23172;BME280;11754;42.664;23.594;2023-11-18T04:51:05;94772.91;;;4.14;76.74
23172;BME280;11754;42.664;23.594;2023-11-18T04:53:31;94766.09;;;4.03;76.36
23172;BME280;11754;42.664;23.594;2023-11-18T04:55:57;94769.09;;;4.08;76.86
23172;BME280;11754;42.664;23.594;2023-11-18T04:58:23;94771.72;;;4.08;76.30
23172;BME280;11754;42.664;23.594;2023-11-18T05:00:49;94774.13;;;4.20;75.77
23172;BME280;11754;42.664;23.594;2023-11-18T05:03:16;94765.25;;;4.03;76.13
23172;BME280;11754;42.664;23.594;2023-11-18T05:05:42;94772.53;;;4.09;76.17
23172;BME280;11754;42.664;23.594;2023-11-18T05:08:10;94756.63;;;4.02;75.74
23172;BME280;11754;42.664;23.594;2023-11-18T05:11:07;94762.47;;;3.87;76.71
23172;BME280;11754;42.664;23.594;2023-11-18T05:13:32;94771.09;;;3.87;76.01
23172;BME280;11754;42.664;23.594;2023-11-18T05:15:59;94759.59;;;3.80;75.71
23172;BME280;11754;42.664;23.594;2023-11-18T05:18:24;94766.16;;;3.84;76.83
23172;BME280;11754;42.664;23.594;2023-11-18T05:20:50;94766.16;;;3.84;77.18
23172;BME280;11754;42.664;23.594;2023-11-18T05:23:15;94766.59;;;3.79;77.09
23172;BME280;11754;42.664;23.594;2023-11-18T05:25:41;94771.94;;;3.78;76.50
23172;BME280;11754;42.664;23.594;2023-11-18T05:28:10;94771.31;;;3.56;77.15
23172;BME280;11754;42.664;23.594;2023-11-18T05:30:37;94775.59;;;3.57;76.99
23172;BME280;11754;42.664;23.594;2023-11-18T05:33:05;94756.78;;;3.54;77.56
23172;BME280;11754;42.664;23.594;2023-11-18T05:35:31;94769.50;;;3.57;77.07
23172;BME280;11754;42.664;23.594;2023-11-18T05:37:59;94773.09;;;3.66;76.93
23172;BME280;11754;42.664;23.594;2023-11-18T05:40:28;94771.03;;;3.59;77.16
23172;BME280;11754;42.664;23.594;2023-11-18T05:42:54;94759.63;;;3.60;76.80
23172;BME280;11754;42.664;23.594;2023-11-18T05:45:20;94767.06;;;3.65;76.46
23172;BME280;11754;42.664;23.594;2023-11-18T05:48:02;94770.63;;;3.54;76.30
23172;BME280;11754;42.664;23.594;2023-11-18T05:50:28;94771.13;;;3.68;76.46
23172;BME280;11754;42.664;23.594;2023-11-18T05:52:54;94765.53;;;3.72;76.36
23172;BME280;11754;42.664;23.594;2023-11-18T05:55:20;94768.94;;;3.73;76.03
23172;BME280;11754;42.664;23.594;2023-11-18T05:57:45;94758.50;;;3.73;75.99
23172;BME280;11754;42.664;23.594;2023-11-18T06:00:13;94752.66;;;3.61;75.97
23172;BME280;11754;42.664;23.594;2023-11-18T06:02:44;94777.47;;;3.65;76.61
23172;BME280;11754;42.664;23.594;2023-11-18T06:05:10;94759.63;;;3.60;76.47
23172;BME280;11754;42.664;23.594;2023-11-18T06:07:38;94765.44;;;3.54;76.71
23172;BME280;11754;42.664;23.594;2023-11-18T06:10:06;94776.94;;;3.61;76.31
23172;BME280;11754;42.664;23.594;2023-11-18T06:12:32;94785.69;;;3.60;76.02
23172;BME280;11754;42.664;23.594;2023-11-18T06:14:58;94788.03;;;3.64;76.51
23172;BME280;11754;42.664;23.594;2023-11-18T06:17:24;94797.19;;;3.77;76.88
23172;BME280;11754;42.664;23.594;2023-11-18T06:19:49;94805.03;;;3.77;76.09
23172;BME280;11754;42.664;23.594;2023-11-18T06:22:15;94802.69;;;3.84;76.04
23172;BME280;11754;42.664;23.594;2023-11-18T06:24:40;94805.13;;;3.85;76.69
23172;BME280;11754;42.664;23.594;2023-11-18T06:27:06;94818.34;;;3.74;76.45
23172;BME280;11754;42.664;23.594;2023-11-18T06:29:34;94818.78;;;3.70;75.97
23172;BME280;11754;42.664;23.594;2023-11-18T06:32:00;94809.31;;;3.69;76.57
23172;BME280;11754;42.664;23.594;2023-11-18T06:34:25;94820.84;;;3.76;76.87
23172;BME280;11754;42.664;23.594;2023-11-18T06:36:52;94827.13;;;3.73;76.61
23172;BME280;11754;42.664;23.594;2023-11-18T06:39:18;94834.81;;;3.75;76.68
23172;BME280;11754;42.664;23.594;2023-11-18T06:41:45;94834.28;;;3.71;76.39
23172;BME280;11754;42.664;23.594;2023-11-18T06:44:16;94840.03;;;3.75;76.61
23172;BME280;11754;42.664;23.594;2023-11-18T06:46:43;94844.16;;;3.77;76.07
23172;BME280;11754;42.664;23.594;2023-11-18T06:49:09;94834.00;;;3.84;75.98
23172;BME280;11754;42.664;23.594;2023-11-18T06:51:40;94830.84;;;3.80;76.54
23172;BME280;11754;42.664;23.594;2023-11-18T06:54:06;94825.44;;;4.01;76.32
23172;BME280;11754;42.664;23.594;2023-11-18T06:56:36;94822.53;;;4.04;75.49
23172;BME280;11754;42.664;23.594;2023-11-18T06:59:08;94825.47;;;4.29;73.84
23172;BME280;11754;42.664;23.594;2023-11-18T07:01:35;94828.31;;;4.36;74.15
23172;BME280;11754;42.664;23.594;2023-11-18T07:04:01;94833.81;;;4.32;72.63
23172;BME280;11754;42.664;23.594;2023-11-18T07:06:27;94837.09;;;4.44;72.80
23172;BME280;11754;42.664;23.594;2023-11-18T07:08:53;94832.81;;;4.43;72.09
23172;BME280;11754;42.664;23.594;2023-11-18T07:11:19;94846.47;;;4.37;72.25
23172;BME280;11754;42.664;23.594;2023-11-18T07:13:48;94822.28;;;4.35;71.71
23172;BME280;11754;42.664;23.594;2023-11-18T07:16:14;94824.03;;;4.44;72.23
23172;BME280;11754;42.664;23.594;2023-11-18T07:18:40;94834.56;;;4.52;71.92
23172;BME280;11754;42.664;23.594;2023-11-18T07:21:09;94835.41;;;4.53;71.73
23172;BME280;11754;42.664;23.594;2023-11-18T07:23:35;94848.91;;;4.48;70.79
23172;BME280;11754;42.664;23.594;2023-11-18T07:26:02;94829.78;;;4.48;71.55
23172;BME280;11754;42.664;23.594;2023-11-18T07:28:31;94835.47;;;4.61;72.01
23172;BME280;11754;42.664;23.594;2023-11-18T07:30:56;94826.25;;;4.67;71.92
23172;BME280;11754;42.664;23.594;2023-11-18T07:33:23;94815.59;;;4.78;71.43
23172;BME280;11754;42.664;23.594;2023-11-18T07:35:49;94826.53;;;4.64;71.50
23172;BME280;11754;42.664;23.594;2023-11-18T07:38:15;94827.47;;;4.45;70.82
23172;BME280;11754;42.664;23.594;2023-11-18T07:40:41;94831.69;;;4.55;72.25
23172;BME280;11754;42.664;23.594;2023-11-18T07:43:15;94827.72;;;4.51;72.23
23172;BME280;11754;42.664;23.594;2023-11-18T07:45:41;94834.28;;;4.55;71.37
23172;BME280;11754;42.664;23.594;2023-11-18T07:48:10;94844.81;;;4.64;71.54
23172;BME280;11754;42.664;23.594;2023-11-18T07:50:38;94844.66;;;4.65;71.32
23172;BME280;11754;42.664;23.594;2023-11-18T07:53:07;94841.13;;;4.66;71.26
23172;BME280;11754;42.664;23.594;2023-11-18T07:55:33;94852.78;;;4.90;71.12
23172;BME280;11754;42.664;23.594;2023-11-18T07:58:03;94843.84;;;4.92;69.88
23172;BME280;11754;42.664;23.594;2023-11-18T08:00:29;94840.63;;;4.80;70.71
23172;BME280;11754;42.664;23.594;2023-11-18T08:02:58;94850.91;;;4.82;70.79
23172;BME280;11754;42.664;23.594;2023-11-18T08:05:26;94863.13;;;4.91;70.70
23172;BME280;11754;42.664;23.594;2023-11-18T08:07:51;94852.16;;;5.05;70.77
23172;BME280;11754;42.664;23.594;2023-11-18T08:10:18;94860.28;;;5.02;70.07
23172;BME280;11754;42.664;23.594;2023-11-18T08:12:45;94865.59;;;5.11;70.43
23172;BME280;11754;42.664;23.594;2023-11-18T08:15:11;94847.84;;;4.87;70.32
23172;BME280;11754;42.664;23.594;2023-11-18T08:17:37;94861.19;;;4.66;69.80
23172;BME280;11754;42.664;23.594;2023-11-18T08:20:02;94853.22;;;4.57;70.93
23172;BME280;11754;42.664;23.594;2023-11-18T08:22:42;94861.84;;;4.68;71.82
23172;BME280;11754;42.664;23.594;2023-11-18T08:25:11;94852.47;;;4.47;71.79
23172;BME280;11754;42.664;23.594;2023-11-18T08:27:41;94850.53;;;4.49;72.10
23172;BME280;11754;42.664;23.594;2023-11-18T08:30:08;94857.34;;;4.60;71.91
23172;BME280;11754;42.664;23.594;2023-11-18T08:32:40;94867.16;;;4.48;72.51
23172;BME280;11754;42.664;23.594;2023-11-18T08:35:08;94870.69;;;4.29;75.24
23172;BME280;11754;42.664;23.594;2023-11-18T08:37:35;94874.94;;;4.21;75.66
23172;BME280;11754;42.664;23.594;2023-11-18T08:40:05;94862.06;;;4.09;76.52
23172;BME280;11754;42.664;23.594;2023-11-18T08:42:48;94880.88;;;4.23;76.91
23172;BME280;11754;42.664;23.594;2023-11-18T08:45:38;94888.25;;;4.27;76.52
23172;BME280;11754;42.664;23.594;2023-11-18T08:48:04;94901.38;;;4.08;76.88
23172;BME280;11754;42.664;23.594;2023-11-18T08:50:34;94885.72;;;3.98;77.49
23172;BME280;11754;42.664;23.594;2023-11-18T08:53:00;94890.78;;;4.09;77.76
23172;BME280;11754;42.664;23.594;2023-11-18T08:55:31;94891.63;;;4.00;77.73
23172;BME280;11754;42.664;23.594;2023-11-18T08:58:16;94897.25;;;4.05;78.73
23172;BME280;11754;42.664;23.594;2023-11-18T09:00:46;94891.38;;;3.84;77.69
23172;BME280;11754;42.664;23.594;2023-11-18T09:03:25;94880.94;;;3.84;77.35
23172;BME280;11754;42.664;23.594;2023-11-18T09:05:57;94903.44;;;3.85;77.42
23172;BME280;11754;42.664;23.594;2023-11-18T09:08:35;94898.38;;;3.83;78.50
23172;BME280;11754;42.664;23.594;2023-11-18T09:11:02;94884.50;;;3.93;78.35
23172;BME280;11754;42.664;23.594;2023-11-18T09:13:30;94884.53;;;3.83;77.11
23172;BME280;11754;42.664;23.594;2023-11-18T09:16:03;94896.88;;;3.81;77.26
23172;BME280;11754;42.664;23.594;2023-11-18T09:18:30;94895.50;;;3.87;76.80
23172;BME280;11754;42.664;23.594;2023-11-18T09:20:57;94888.06;;;3.82;76.63
23172;BME280;11754;42.664;23.594;2023-11-18T09:23:32;94871.47;;;3.83;76.97
23172;BME280;11754;42.664;23.594;2023-11-18T09:26:01;94873.81;;;3.86;77.53
23172;BME280;11754;42.664;23.594;2023-11-18T09:28:27;94872.97;;;3.95;76.02
23172;BME280;11754;42.664;23.594;2023-11-18T09:30:56;94861.44;;;3.78;75.62
23172;BME280;11754;42.664;23.594;2023-11-18T09:33:24;94864.31;;;3.95;76.19
23172;BME280;11754;42.664;23.594;2023-11-18T09:35:55;94875.19;;;3.90;75.39
23172;BME280;11754;42.664;23.594;2023-11-18T09:38:24;94854.97;;;3.92;75.12
23172;BME280;11754;42.664;23.594;2023-11-18T09:40:52;94868.06;;;3.82;75.48
23172;BME280;11754;42.664;23.594;2023-11-18T09:43:18;94857.56;;;3.92;75.85
23172;BME280;11754;42.664;23.594;2023-11-18T09:45:45;94860.19;;;3.92;75.83
23172;BME280;11754;42.664;23.594;2023-11-18T09:48:17;94854.81;;;4.03;75.39
23172;BME280;11754;42.664;23.594;2023-11-18T09:50:45;94847.81;;;4.04;74.00
23172;BME280;11754;42.664;23.594;2023-11-18T09:53:14;94855.41;;;3.88;73.48
23172;BME280;11754;42.664;23.594;2023-11-18T09:55:56;94840.84;;;3.85;72.97
23172;BME280;11754;42.664;23.594;2023-11-18T09:58:35;94855.69;;;3.84;73.88
23172;BME280;11754;42.664;23.594;2023-11-18T10:01:06;94857.56;;;3.92;73.06
23172;BME280;11754;42.664;23.594;2023-11-18T10:03:32;94858.97;;;3.87;73.09
23172;BME280;11754;42.664;23.594;2023-11-18T10:06:02;94861.16;;;3.91;72.66
23172;BME280;11754;42.664;23.594;2023-11-18T10:08:31;94864.75;;;3.90;72.22
23172;BME280;11754;42.664;23.594;2023-11-18T10:10:56;94861.00;;;4.02;71.39
23172;BME280;11754;42.664;23.594;2023-11-18T10:13:31;94864.75;;;3.90;72.73
23172;BME280;11754;42.664;23.594;2023-11-18T10:16:00;94855.66;;;4.04;72.35
23172;BME280;11754;42.664;23.594;2023-11-18T10:18:27;94851.53;;;3.92;71.67
23172;BME280;11754;42.664;23.594;2023-11-18T10:20:53;94860.78;;;3.86;72.32
23172;BME280;11754;42.664;23.594;2023-11-18T10:23:20;94856.25;;;3.69;72.25
23172;BME280;11754;42.664;23.594;2023-11-18T10:25:56;94868.44;;;3.88;72.18
23172;BME280;11754;42.664;23.594;2023-11-18T10:31:02;94869.78;;;4.01;71.18
23172;BME280;11754;42.664;23.594;2023-11-18T10:33:38;94861.09;;;4.10;71.36
23172;BME280;11754;42.664;23.594;2023-11-18T10:36:17;94853.69;;;4.16;70.98
23172;BME280;11754;42.664;23.594;2023-11-18T10:38:48;94837.25;;;3.96;71.06
23172;BME280;11754;42.664;23.594;2023-11-18T10:41:18;94844.53;;;3.92;71.20
23172;BME280;11754;42.664;23.594;2023-11-18T10:43:44;94841.38;;;3.98;71.00
23172;BME280;11754;42.664;23.594;2023-11-18T10:46:11;94850.03;;;3.89;71.29
23172;BME280;11754;42.664;23.594;2023-11-18T10:48:44;94832.06;;;3.86;70.86
23172;BME280;11754;42.664;23.594;2023-11-18T10:51:14;94838.66;;;3.90;70.82
23172;BME280;11754;42.664;23.594;2023-11-18T10:53:48;94830.94;;;3.98;69.94
23172;BME280;11754;42.664;23.594;2023-11-18T10:56:29;94835.59;;;3.95;70.08
23172;BME280;11754;42.664;23.594;2023-11-18T10:59:04;94826.56;;;3.89;70.72
23172;BME280;11754;42.664;23.594;2023-11-18T11:01:36;94841.66;;;3.95;70.44
23172;BME280;11754;42.664;23.594;2023-11-18T11:04:11;94856.75;;;4.01;70.15
23172;BME280;11754;42.664;23.594;2023-11-18T11:06:44;94863.88;;;4.09;70.07
23172;BME280;11754;42.664;23.594;2023-11-18T11:09:25;94863.31;;;4.05;69.98
23172;BME280;11754;42.664;23.594;2023-11-18T11:11:58;94856.13;;;4.17;70.43
23172;BME280;11754;42.664;23.594;2023-11-18T11:14:33;94830.25;;;3.96;70.65
23172;BME280;11754;42.664;23.594;2023-11-18T11:17:22;94826.91;;;4.14;70.44
23172;BME280;11754;42.664;23.594;2023-11-18T11:20:01;94837.38;;;4.04;69.64
23172;BME280;11754;42.664;23.594;2023-11-18T11:29:32;94854.81;;;4.03;70.24
23172;BME280;11754;42.664;23.594;2023-11-18T11:44:49;94827.84;;;4.22;69.67
23172;BME280;11754;42.664;23.594;2023-11-18T11:47:17;94836.66;;;4.12;70.60
23172;BME280;11754;42.664;23.594;2023-11-18T11:50:12;94832.22;;;4.22;69.93
23172;BME280;11754;42.664;23.594;2023-11-18T11:52:46;94845.41;;;4.30;69.89
23172;BME280;11754;42.664;23.594;2023-11-18T11:55:23;94829.72;;;4.30;68.98
23172;BME280;11754;42.664;23.594;2023-11-18T11:57:54;94835.25;;;4.27;69.13
23172;BME280;11754;42.664;23.594;2023-11-18T12:00:24;94830.00;;;4.27;68.01
23172;BME280;11754;42.664;23.594;2023-11-18T12:02:52;94843.03;;;4.37;68.57
23172;BME280;11754;42.664;23.594;2023-11-18T12:08:42;94837.28;;;4.61;67.78
23172;BME280;11754;42.664;23.594;2023-11-18T12:11:07;94845.03;;;4.52;68.18
23172;BME280;11754;42.664;23.594;2023-11-18T12:13:35;94839.22;;;4.58;67.86
23172;BME280;11754;42.664;23.594;2023-11-18T12:16:05;94847.25;;;4.47;68.16
23172;BME280;11754;42.664;23.594;2023-11-18T12:18:31;94853.84;;;4.51;68.34
23172;BME280;11754;42.664;23.594;2023-11-18T12:21:01;94847.94;;;4.40;68.57
23172;BME280;11754;42.664;23.594;2023-11-18T12:23:28;94858.25;;;4.41;68.33
23172;BME280;11754;42.664;23.594;2023-11-18T12:25:55;94845.25;;;4.31;68.63
23172;BME280;11754;42.664;23.594;2023-11-18T12:28:32;94847.72;;;4.33;69.41
23172;BME280;11754;42.664;23.594;2023-11-18T12:31:04;94845.13;;;4.23;68.93
23172;BME280;11754;42.664;23.594;2023-11-18T12:39:20;94843.16;;;4.35;69.43
23172;BME280;11754;42.664;23.594;2023-11-18T12:52:20;94849.53;;;4.23;69.67
23172;BME280;11754;42.664;23.594;2023-11-18T12:54:47;94810.31;;;4.05;69.40
23172;BME280;11754;42.664;23.594;2023-11-18T12:57:26;94866.31;;;4.20;70.12
23172;BME280;11754;42.664;23.594;2023-11-18T12:59:56;94842.38;;;4.25;70.38
23172;BME280;11754;42.664;23.594;2023-11-18T13:02:22;94839.38;;;4.20;69.83
23172;BME280;11754;42.664;23.594;2023-11-18T13:04:49;94847.06;;;4.21;69.83
23172;BME280;11754;42.664;23.594;2023-11-18T13:07:15;94830.06;;;4.07;70.78
23172;BME280;11754;42.664;23.594;2023-11-18T13:09:42;94850.78;;;4.19;70.63
23172;BME280;11754;42.664;23.594;2023-11-18T13:12:11;94852.81;;;4.25;70.01
23172;BME280;11754;42.664;23.594;2023-11-18T13:14:40;94872.63;;;4.18;70.95
23172;BME280;11754;42.664;23.594;2023-11-18T13:17:14;94875.06;;;4.29;70.50
23172;BME280;11754;42.664;23.594;2023-11-18T13:19:41;94864.78;;;4.18;70.05
23172;BME280;11754;42.664;23.594;2023-11-18T13:22:09;94870.44;;;4.23;70.66
23172;BME280;11754;42.664;23.594;2023-11-18T13:24:37;94889.09;;;4.28;70.15
23172;BME280;11754;42.664;23.594;2023-11-18T13:27:05;94895.81;;;4.30;70.78
23172;BME280;11754;42.664;23.594;2023-11-18T13:29:32;94896.91;;;4.28;71.27
23172;BME280;11754;42.664;23.594;2023-11-18T13:32:00;94893.75;;;4.34;70.76
23172;BME280;11754;42.664;23.594;2023-11-18T13:34:30;94901.47;;;4.26;71.73
23172;BME280;11754;42.664;23.594;2023-11-18T13:43:43;94917.41;;;4.23;73.41
23172;BME280;11754;42.664;23.594;2023-11-18T13:46:17;94919.03;;;4.24;74.57
23172;BME280;11754;42.664;23.594;2023-11-18T13:48:47;94915.25;;;4.08;74.13
23172;BME280;11754;42.664;23.594;2023-11-18T13:51:14;94932.94;;;4.15;74.93
23172;BME280;11754;42.664;23.594;2023-11-18T13:53:41;94936.63;;;4.22;75.39
23172;BME280;11754;42.664;23.594;2023-11-18T13:56:45;94943.25;;;4.26;75.54
23172;BME280;11754;42.664;23.594;2023-11-18T13:59:10;94949.56;;;4.23;75.86